Time;durP1;ratioP1;P1;durP2;ratioP2;P2;SDS_P1;SDS_P2;PMS_P1;PMS_P2;Temp;Humidity;BMP_temperature;BMP_pressure;BME280_temperature;BME280_humidity;BME280_pressure;Samples;Min_cycle;Max_cycle;Signal;HPM_P1;HPM_P2
2022/03/03 00:02:11;;;;;;;31.55;14.10;;;;;;;;;;5030485;28;20155;-73
2022/03/03 00:04:38;;;;;;;21.92;12.50;;;;;;;;;;5028415;28;20234;-74
2022/03/03 00:07:07;;;;;;;31.13;14.30;;;;;;;;;;5033505;28;20316;-75
2022/03/03 00:09:39;;;;;;;26.60;13.93;;;;;;;;;;5028355;28;20654;-73
2022/03/03 00:12:08;;;;;;;33.63;13.70;;;;;;;;;;5032406;28;20548;-74
2022/03/03 00:14:36;;;;;;;25.70;13.68;;;;;;;;;;5030542;28;20049;-73
2022/03/03 00:17:04;;;;;;;29.55;14.25;;;;;;;;;;5030184;28;20191;-73
2022/03/03 00:19:31;;;;;;;29.23;12.73;;;;;;;;;;5031439;28;20049;-73
2022/03/03 00:22:02;;;;;;;25.95;13.27;;;;;;;;;;5032121;28;20061;-73
2022/03/03 00:24:31;;;;;;;26.02;13.57;;;;;;;;;;5035139;28;20477;-73
2022/03/03 00:26:59;;;;;;;28.63;13.85;;;;;;;;;;5036196;28;20653;-72
2022/03/03 00:29:26;;;;;;;27.90;12.82;;;;;;;;;;5036128;28;20540;-73
2022/03/03 00:31:54;;;;;;;21.13;11.35;;;;;;;;;;5032345;28;20045;-74
2022/03/03 00:34:22;;;;;;;26.48;12.77;;;;;;;;;;5036435;28;20064;-73
2022/03/03 00:36:49;;;;;;;29.45;13.25;;;;;;;;;;5032709;28;20072;-73
2022/03/03 00:39:17;;;;;;;30.55;12.93;;;;;;;;;;5032231;28;20125;-73
2022/03/03 00:41:46;;;;;;;28.63;13.70;;;;;;;;;;5032300;28;20060;-74
2022/03/03 00:44:14;;;;;;;32.60;12.50;;;;;;;;;;5033040;28;20057;-73
2022/03/03 00:46:48;;;;;;;27.30;11.70;;;;;;;;;;5034811;28;20049;-73
2022/03/03 00:49:17;;;;;;;28.35;12.27;;;;;;;;;;5030131;28;20118;-74
2022/03/03 00:51:46;;;;;;;27.77;13.10;;;;;;;;;;5031653;28;20135;-73
2022/03/03 00:54:14;;;;;;;28.08;12.23;;;;;;;;;;5032382;28;20128;-73
2022/03/03 00:56:42;;;;;;;26.70;12.40;;;;;;;;;;5034610;28;20045;-73
2022/03/03 00:59:11;;;;;;;28.83;13.32;;;;;;;;;;5030800;28;20071;-73
2022/03/03 01:01:39;;;;;;;28.25;14.32;;;;;;;;;;5030721;28;20158;-74
2022/03/03 01:04:08;;;;;;;28.13;12.73;;;;;;;;;;5033792;28;20037;-73
2022/03/03 01:06:35;;;;;;;28.17;13.38;;;;;;;;;;5033827;28;20638;-73
2022/03/03 01:09:06;;;;;;;26.55;12.82;;;;;;;;;;5031389;28;20398;-73
2022/03/03 01:11:35;;;;;;;27.52;14.13;;;;;;;;;;5035870;28;20405;-74
2022/03/03 01:14:03;;;;;;;27.27;12.15;;;;;;;;;;5031720;28;20052;-73
2022/03/03 01:16:32;;;;;;;29.40;12.57;;;;;;;;;;5032836;28;20133;-74
2022/03/03 01:19:04;;;;;;;26.17;12.27;;;;;;;;;;5033614;28;20156;-74
2022/03/03 01:21:56;;;;;;;22.45;11.75;;;;;;;;;;5040139;28;20121;-75
2022/03/03 01:24:24;;;;;;;26.15;12.15;;;;;;;;;;5032214;28;20049;-73
2022/03/03 01:26:52;;;;;;;25.55;11.98;;;;;;;;;;5036201;28;20099;-73
2022/03/03 01:29:19;;;;;;;25.58;12.57;;;;;;;;;;5030203;28;20041;-72
2022/03/03 01:31:48;;;;;;;29.27;13.05;;;;;;;;;;5030728;28;20061;-73
2022/03/03 01:34:16;;;;;;;23.50;12.20;;;;;;;;;;5032469;28;20107;-73
2022/03/03 01:36:44;;;;;;;29.25;12.10;;;;;;;;;;5036265;28;20044;-72
2022/03/03 01:39:12;;;;;;;30.83;12.80;;;;;;;;;;5030009;28;20049;-73
2022/03/03 01:41:41;;;;;;;25.40;11.82;;;;;;;;;;5030938;28;20049;-73
2022/03/03 01:44:10;;;;;;;26.95;13.05;;;;;;;;;;5033377;28;20223;-74
2022/03/03 01:46:49;;;;;;;24.85;11.93;;;;;;;;;;5031684;28;20076;-73
2022/03/03 01:49:17;;;;;;;25.17;13.00;;;;;;;;;;5031229;28;20061;-74
2022/03/03 01:51:46;;;;;;;27.15;12.95;;;;;;;;;;5033952;28;20138;-74
2022/03/03 01:54:14;;;;;;;26.85;12.15;;;;;;;;;;5029654;28;20053;-74
2022/03/03 01:56:42;;;;;;;26.98;12.95;;;;;;;;;;5031657;28;20156;-73
2022/03/03 01:59:10;;;;;;;34.00;15.23;;;;;;;;;;5036027;28;20036;-74
2022/03/03 02:01:39;;;;;;;27.58;12.30;;;;;;;;;;5032836;28;20052;-73
2022/03/03 02:04:09;;;;;;;24.42;12.07;;;;;;;;;;5033207;28;20042;-73
2022/03/03 02:06:38;;;;;;;25.00;12.65;;;;;;;;;;5028282;28;20044;-73
2022/03/03 02:09:05;;;;;;;27.33;12.90;;;;;;;;;;5031856;28;20127;-73
2022/03/03 02:11:33;;;;;;;29.40;13.45;;;;;;;;;;5031414;28;20053;-73
2022/03/03 02:14:02;;;;;;;32.35;12.95;;;;;;;;;;5033962;28;20203;-73
2022/03/03 02:16:30;;;;;;;30.90;14.20;;;;;;;;;;5026424;28;20048;-74
2022/03/03 02:18:58;;;;;;;26.50;12.68;;;;;;;;;;5029291;28;20075;-74
2022/03/03 02:21:27;;;;;;;27.77;12.70;;;;;;;;;;5035111;28;20057;-73
2022/03/03 02:23:55;;;;;;;31.52;12.93;;;;;;;;;;5029858;28;20057;-73
2022/03/03 02:26:23;;;;;;;24.05;11.93;;;;;;;;;;5035329;28;20057;-72
2022/03/03 02:28:52;;;;;;;27.52;13.20;;;;;;;;;;5030482;28;20045;-73
2022/03/03 02:31:20;;;;;;;27.65;12.90;;;;;;;;;;5031551;28;20057;-73
2022/03/03 02:33:49;;;;;;;31.10;13.48;;;;;;;;;;5031540;28;20613;-73
2022/03/03 02:36:18;;;;;;;31.40;14.63;;;;;;;;;;5031775;28;20072;-74
2022/03/03 02:38:49;;;;;;;29.92;13.30;;;;;;;;;;5031431;28;20063;-74
2022/03/03 02:41:17;;;;;;;25.75;13.48;;;;;;;;;;5031509;28;20283;-73
2022/03/03 02:43:45;;;;;;;22.48;12.75;;;;;;;;;;5033832;28;20063;-73
2022/03/03 02:46:14;;;;;;;23.45;13.13;;;;;;;;;;5032462;28;20049;-73
2022/03/03 02:48:42;;;;;;;31.63;13.90;;;;;;;;;;5031712;28;20049;-73
2022/03/03 02:51:10;;;;;;;27.70;14.63;;;;;;;;;;5035631;28;20037;-75
2022/03/03 02:53:39;;;;;;;30.30;13.32;;;;;;;;;;5030934;28;20139;-72
2022/03/03 02:56:08;;;;;;;27.65;12.68;;;;;;;;;;5035162;28;20067;-72
2022/03/03 02:58:36;;;;;;;26.17;12.70;;;;;;;;;;5033518;28;20056;-72
2022/03/03 03:01:05;;;;;;;30.85;13.30;;;;;;;;;;5029965;28;20128;-74
2022/03/03 03:03:33;;;;;;;30.10;12.90;;;;;;;;;;5030889;28;20056;-73
2022/03/03 03:06:01;;;;;;;30.00;13.30;;;;;;;;;;5032172;28;20045;-73
2022/03/03 03:08:29;;;;;;;26.38;13.82;;;;;;;;;;5028330;28;20494;-73
2022/03/03 03:10:56;;;;;;;27.65;13.73;;;;;;;;;;5029097;28;20249;-74
2022/03/03 03:13:25;;;;;;;28.88;14.50;;;;;;;;;;5034742;28;20092;-75
2022/03/03 03:15:54;;;;;;;33.20;13.63;;;;;;;;;;5031088;28;20052;-74
2022/03/03 03:18:22;;;;;;;29.50;14.25;;;;;;;;;;5030996;28;20050;-74
2022/03/03 03:20:51;;;;;;;31.75;14.02;;;;;;;;;;5031095;28;20170;-73
2022/03/03 03:23:20;;;;;;;30.65;13.40;;;;;;;;;;5032248;28;20056;-73
2022/03/03 03:25:48;;;;;;;26.73;12.95;;;;;;;;;;5034475;28;20041;-73
2022/03/03 03:28:16;;;;;;;34.50;15.70;;;;;;;;;;5032724;28;20086;-73
2022/03/03 03:30:46;;;;;;;30.92;14.50;;;;;;;;;;5033099;28;20049;-74
2022/03/03 03:33:14;;;;;;;31.10;15.05;;;;;;;;;;5029364;28;20049;-75
2022/03/03 03:35:42;;;;;;;30.58;15.68;;;;;;;;;;5033720;28;20047;-75
2022/03/03 03:38:10;;;;;;;27.13;14.10;;;;;;;;;;5029180;28;20063;-75
2022/03/03 03:40:38;;;;;;;29.27;13.35;;;;;;;;;;5032497;28;20045;-75
2022/03/03 03:43:05;;;;;;;34.03;15.38;;;;;;;;;;5029367;28;20063;-73
2022/03/03 03:45:35;;;;;;;33.13;14.40;;;;;;;;;;5029580;28;20122;-75
2022/03/03 03:48:05;;;;;;;33.85;15.38;;;;;;;;;;5030876;28;20071;-73
2022/03/03 03:50:32;;;;;;;31.65;14.43;;;;;;;;;;5032089;28;20048;-73
2022/03/03 03:53:00;;;;;;;30.45;14.63;;;;;;;;;;5028997;28;20057;-73
2022/03/03 03:55:28;;;;;;;26.50;12.07;;;;;;;;;;5030684;28;20057;-73
2022/03/03 03:57:55;;;;;;;30.63;14.50;;;;;;;;;;5033252;28;20053;-75
2022/03/03 04:00:23;;;;;;;28.73;12.93;;;;;;;;;;5033906;28;20048;-74
2022/03/03 04:02:51;;;;;;;31.65;14.45;;;;;;;;;;5032360;28;20395;-75
2022/03/03 04:05:20;;;;;;;31.70;13.57;;;;;;;;;;5034288;28;20060;-73
2022/03/03 04:07:48;;;;;;;32.05;14.02;;;;;;;;;;5036999;28;20426;-73
2022/03/03 04:10:16;;;;;;;34.47;15.82;;;;;;;;;;5032098;28;20719;-72
2022/03/03 04:12:43;;;;;;;36.63;16.15;;;;;;;;;;5036506;28;20574;-73
2022/03/03 04:15:11;;;;;;;34.92;15.85;;;;;;;;;;5033441;28;20132;-74
2022/03/03 04:18:03;;;;;;;35.63;15.18;;;;;;;;;;5035552;28;20079;-74
2022/03/03 04:20:56;;;;;;;28.92;16.30;;;;;;;;;;5033605;28;20060;-75
2022/03/03 04:23:23;;;;;;;29.45;15.20;;;;;;;;;;5036768;28;20122;-74
2022/03/03 04:25:51;;;;;;;29.33;12.65;;;;;;;;;;5035633;28;20049;-73
2022/03/03 04:28:19;;;;;;;32.47;15.55;;;;;;;;;;5034401;28;20150;-73
2022/03/03 04:30:48;;;;;;;34.47;15.13;;;;;;;;;;5032971;28;20085;-74
2022/03/03 04:33:16;;;;;;;32.13;15.05;;;;;;;;;;5033098;28;20210;-72
2022/03/03 04:35:50;;;;;;;29.10;15.65;;;;;;;;;;5033405;28;20067;-74
2022/03/03 04:38:19;;;;;;;28.92;14.88;;;;;;;;;;5029525;28;20041;-73
2022/03/03 04:40:47;;;;;;;33.65;15.43;;;;;;;;;;5032187;28;20179;-73
2022/03/03 04:43:15;;;;;;;35.38;15.55;;;;;;;;;;5033980;28;20135;-73
2022/03/03 04:45:43;;;;;;;33.90;15.65;;;;;;;;;;5030282;28;20631;-75
2022/03/03 04:48:10;;;;;;;34.58;16.63;;;;;;;;;;5032160;28;20501;-75
2022/03/03 04:50:38;;;;;;;33.05;15.88;;;;;;;;;;5034193;28;20131;-73
2022/03/03 04:53:06;;;;;;;28.00;13.75;;;;;;;;;;5029422;28;20064;-74
2022/03/03 04:55:35;;;;;;;34.97;15.43;;;;;;;;;;5038917;28;20091;-73
2022/03/03 04:58:06;;;;;;;33.33;16.57;;;;;;;;;;5030463;28;20469;-73
2022/03/03 05:00:37;;;;;;;34.13;16.38;;;;;;;;;;5032335;28;20637;-74
2022/03/03 05:03:04;;;;;;;30.98;14.70;;;;;;;;;;5030267;28;20054;-73
2022/03/03 05:05:56;;;;;;;32.22;15.10;;;;;;;;;;5035022;28;20083;-75
2022/03/03 05:08:24;;;;;;;36.20;15.95;;;;;;;;;;5032947;28;20501;-73
2022/03/03 05:10:53;;;;;;;30.65;16.35;;;;;;;;;;5033733;28;20152;-74
2022/03/03 05:13:21;;;;;;;30.42;15.57;;;;;;;;;;5031466;28;20051;-73
2022/03/03 05:15:48;;;;;;;37.75;14.95;;;;;;;;;;5032010;28;20044;-75
2022/03/03 05:18:16;;;;;;;33.55;15.93;;;;;;;;;;5029958;28;20102;-76
2022/03/03 05:20:44;;;;;;;32.03;15.35;;;;;;;;;;5031034;28;20168;-74
2022/03/03 05:23:11;;;;;;;35.03;15.10;;;;;;;;;;5035911;28;20431;-75
2022/03/03 05:25:39;;;;;;;37.38;17.45;;;;;;;;;;5032454;28;20073;-75
2022/03/03 05:28:08;;;;;;;32.75;17.27;;;;;;;;;;5031025;28;20548;-75
2022/03/03 05:30:37;;;;;;;40.78;16.80;;;;;;;;;;5034559;28;20665;-73
2022/03/03 05:33:07;;;;;;;42.50;17.48;;;;;;;;;;5035673;28;20119;-73
2022/03/03 05:35:34;;;;;;;34.90;16.70;;;;;;;;;;5032852;28;20528;-73
2022/03/03 05:38:03;;;;;;;36.60;16.45;;;;;;;;;;5034926;28;20065;-73
2022/03/03 05:40:31;;;;;;;36.53;15.50;;;;;;;;;;5031413;28;20155;-72
2022/03/03 05:42:59;;;;;;;40.92;17.50;;;;;;;;;;5032939;28;20168;-75
2022/03/03 05:45:28;;;;;;;40.55;16.30;;;;;;;;;;5032739;28;20053;-73
2022/03/03 05:47:56;;;;;;;35.60;16.45;;;;;;;;;;5031488;28;20073;-73
2022/03/03 05:50:24;;;;;;;31.10;15.93;;;;;;;;;;5036087;28;20071;-73
2022/03/03 05:52:51;;;;;;;35.40;16.55;;;;;;;;;;5026221;28;20550;-73
2022/03/03 05:55:19;;;;;;;41.25;16.83;;;;;;;;;;5032972;28;20467;-75
2022/03/03 05:57:49;;;;;;;36.70;17.00;;;;;;;;;;5030622;28;20057;-75
2022/03/03 06:00:18;;;;;;;42.00;18.20;;;;;;;;;;5033429;28;20159;-74
2022/03/03 06:02:50;;;;;;;34.30;16.52;;;;;;;;;;5030437;28;20048;-73
2022/03/03 06:05:19;;;;;;;34.95;17.25;;;;;;;;;;5031467;28;20080;-73
2022/03/03 06:07:50;;;;;;;34.30;16.92;;;;;;;;;;5029990;28;20483;-73
2022/03/03 06:10:21;;;;;;;36.55;17.33;;;;;;;;;;5033846;28;20087;-73
2022/03/03 06:12:51;;;;;;;34.90;17.67;;;;;;;;;;5031076;28;20504;-73
2022/03/03 06:15:22;;;;;;;35.33;17.08;;;;;;;;;;5032798;28;20374;-73
2022/03/03 06:17:51;;;;;;;37.38;17.08;;;;;;;;;;5031362;28;20052;-74
2022/03/03 06:20:19;;;;;;;33.72;16.02;;;;;;;;;;5028530;28;20677;-73
2022/03/03 06:22:46;;;;;;;39.60;17.58;;;;;;;;;;5036762;28;20053;-73
2022/03/03 06:25:14;;;;;;;41.35;18.25;;;;;;;;;;5029946;28;20061;-73
2022/03/03 06:27:43;;;;;;;35.05;17.20;;;;;;;;;;5032623;28;20063;-73
2022/03/03 06:30:10;;;;;;;29.55;16.27;;;;;;;;;;5030710;28;20152;-74
2022/03/03 06:32:38;;;;;;;35.50;16.42;;;;;;;;;;5032107;28;20049;-74
2022/03/03 06:35:08;;;;;;;36.20;16.77;;;;;;;;;;5030788;28;20059;-73
2022/03/03 06:37:35;;;;;;;37.15;17.35;;;;;;;;;;5034380;28;20243;-73
2022/03/03 06:40:04;;;;;;;35.63;16.67;;;;;;;;;;5029446;28;20056;-74
2022/03/03 06:42:32;;;;;;;36.70;17.77;;;;;;;;;;5032820;28;20045;-73
2022/03/03 06:45:00;;;;;;;34.40;15.93;;;;;;;;;;5032030;28;20136;-73
2022/03/03 06:47:29;;;;;;;43.05;17.30;;;;;;;;;;5031148;28;20061;-73
2022/03/03 06:49:56;;;;;;;35.83;17.55;;;;;;;;;;5031616;28;20082;-73
2022/03/03 06:52:27;;;;;;;32.42;16.92;;;;;;;;;;5025477;28;20095;-74
2022/03/03 06:54:55;;;;;;;33.88;16.80;;;;;;;;;;5031795;28;20243;-73
2022/03/03 06:57:23;;;;;;;38.42;17.80;;;;;;;;;;5032812;28;20044;-75
2022/03/03 06:59:51;;;;;;;35.92;17.83;;;;;;;;;;5029224;28;20128;-73
2022/03/03 07:02:20;;;;;;;33.20;16.67;;;;;;;;;;5033098;28;20131;-73
2022/03/03 07:04:49;;;;;;;42.58;18.13;;;;;;;;;;5034240;28;20053;-74
2022/03/03 07:07:17;;;;;;;38.85;19.17;;;;;;;;;;5035084;28;20048;-73
2022/03/03 07:09:46;;;;;;;34.55;18.10;;;;;;;;;;5030573;28;20045;-73
2022/03/03 07:12:15;;;;;;;37.78;18.20;;;;;;;;;;5035327;28;20140;-73
2022/03/03 07:14:44;;;;;;;43.78;17.52;;;;;;;;;;5030038;28;20164;-72
2022/03/03 07:17:14;;;;;;;42.20;17.63;;;;;;;;;;5031282;28;20060;-74
2022/03/03 07:19:55;;;;;;;39.03;17.73;;;;;;;;;;5026671;28;20752;-73
2022/03/03 07:22:27;;;;;;;39.45;17.10;;;;;;;;;;5026038;28;20183;-73
2022/03/03 07:25:02;;;;;;;39.13;18.48;;;;;;;;;;5028127;28;20040;-74
2022/03/03 07:27:31;;;;;;;39.15;18.60;;;;;;;;;;5027089;28;20145;-73
2022/03/03 07:29:59;;;;;;;40.53;17.80;;;;;;;;;;5028634;28;20126;-74
2022/03/03 07:32:37;;;;;;;40.38;18.73;;;;;;;;;;5029189;28;20524;-74
2022/03/03 07:35:07;;;;;;;36.08;17.55;;;;;;;;;;5031176;28;20520;-74
2022/03/03 07:37:39;;;;;;;39.53;17.55;;;;;;;;;;5029228;28;20063;-74
2022/03/03 07:40:11;;;;;;;47.13;19.93;;;;;;;;;;5034903;28;20135;-73
2022/03/03 07:42:39;;;;;;;43.55;18.23;;;;;;;;;;5034716;28;20183;-73
2022/03/03 07:45:08;;;;;;;40.17;17.88;;;;;;;;;;5033138;28;20057;-73
2022/03/03 07:47:36;;;;;;;46.53;19.00;;;;;;;;;;5034958;28;20049;-74
2022/03/03 07:50:04;;;;;;;40.50;18.08;;;;;;;;;;5035645;28;20045;-73
2022/03/03 07:52:34;;;;;;;39.78;18.55;;;;;;;;;;5034495;28;20509;-74
2022/03/03 07:55:02;;;;;;;35.70;16.38;;;;;;;;;;5039599;28;20087;-74
2022/03/03 07:57:34;;;;;;;34.85;17.75;;;;;;;;;;5034900;28;20098;-75
2022/03/03 08:00:04;;;;;;;43.47;19.20;;;;;;;;;;5039439;28;20060;-74
2022/03/03 08:02:35;;;;;;;38.83;18.95;;;;;;;;;;5032954;28;20147;-73
2022/03/03 08:05:05;;;;;;;32.95;15.73;;;;;;;;;;5032002;28;20057;-73
2022/03/03 08:07:35;;;;;;;31.65;16.83;;;;;;;;;;5031863;28;20045;-74
2022/03/03 08:10:03;;;;;;;35.78;17.38;;;;;;;;;;5032309;28;20056;-73
2022/03/03 08:12:32;;;;;;;40.42;17.88;;;;;;;;;;5028249;28;20057;-74
2022/03/03 08:15:01;;;;;;;35.88;16.77;;;;;;;;;;5029955;28;20060;-74
2022/03/03 08:17:28;;;;;;;32.78;18.27;;;;;;;;;;5028708;28;20042;-73
2022/03/03 08:19:56;;;;;;;38.17;17.77;;;;;;;;;;5028445;28;20078;-74
2022/03/03 08:22:25;;;;;;;39.08;17.42;;;;;;;;;;5035708;28;20052;-73
2022/03/03 08:24:54;;;;;;;40.65;18.50;;;;;;;;;;5032766;28;20064;-72
2022/03/03 08:27:23;;;;;;;40.50;19.77;;;;;;;;;;5030848;28;20521;-72
2022/03/03 08:29:51;;;;;;;34.50;16.48;;;;;;;;;;5029443;28;20059;-72
2022/03/03 08:32:21;;;;;;;36.45;18.55;;;;;;;;;;5033642;28;20057;-73
2022/03/03 08:34:54;;;;;;;35.97;15.82;;;;;;;;;;5031577;28;20592;-73
2022/03/03 08:37:29;;;;;;;36.40;16.30;;;;;;;;;;5033571;28;20072;-73
2022/03/03 08:39:59;;;;;;;38.35;18.45;;;;;;;;;;5033703;28;20056;-73
2022/03/03 08:42:30;;;;;;;37.78;18.63;;;;;;;;;;5029425;28;20060;-73
2022/03/03 08:45:02;;;;;;;37.22;17.42;;;;;;;;;;5033800;28;20577;-73
2022/03/03 08:47:32;;;;;;;38.53;17.42;;;;;;;;;;5026301;28;20127;-73
2022/03/03 08:50:01;;;;;;;33.97;17.08;;;;;;;;;;5030981;28;20140;-74
2022/03/03 08:52:49;;;;;;;28.85;13.48;;;;;;;;;;5028922;28;20527;-74
2022/03/03 08:55:16;;;;;;;33.60;14.85;;;;;;;;;;5028048;28;20580;-74
2022/03/03 08:57:44;;;;;;;36.67;17.05;;;;;;;;;;5028423;28;20176;-74
2022/03/03 09:00:12;;;;;;;37.88;18.92;;;;;;;;;;5028960;28;20132;-74
2022/03/03 09:02:41;;;;;;;37.17;18.80;;;;;;;;;;5028869;28;20057;-74
2022/03/03 09:05:09;;;;;;;44.20;20.48;;;;;;;;;;5030664;28;20057;-75
2022/03/03 09:07:37;;;;;;;35.75;16.80;;;;;;;;;;5033861;28;20105;-74
2022/03/03 09:10:06;;;;;;;33.70;17.27;;;;;;;;;;5029764;28;20056;-74
2022/03/03 09:12:34;;;;;;;38.00;18.35;;;;;;;;;;5031237;28;20063;-74
2022/03/03 09:15:02;;;;;;;39.78;18.67;;;;;;;;;;5031378;28;20082;-73
2022/03/03 09:17:32;;;;;;;31.48;14.55;;;;;;;;;;5036797;28;20080;-76
2022/03/03 09:20:02;;;;;;;36.05;17.30;;;;;;;;;;5031258;28;20165;-75
2022/03/03 09:22:30;;;;;;;29.60;16.17;;;;;;;;;;5029587;28;22218;-75
2022/03/03 09:24:58;;;;;;;21.40;10.32;;;;;;;;;;5033953;28;20116;-75
2022/03/03 09:27:26;;;;;;;31.67;14.13;;;;;;;;;;5032303;28;20052;-74
2022/03/03 09:29:54;;;;;;;29.25;15.23;;;;;;;;;;5033978;28;20063;-75
2022/03/03 09:32:21;;;;;;;34.05;16.98;;;;;;;;;;5029424;28;20047;-75
2022/03/03 09:34:49;;;;;;;27.15;14.50;;;;;;;;;;5031970;28;20061;-76
2022/03/03 09:37:18;;;;;;;34.83;17.67;;;;;;;;;;5028665;28;20060;-75
2022/03/03 09:39:48;;;;;;;26.98;14.52;;;;;;;;;;5028602;28;20049;-73
2022/03/03 09:42:15;;;;;;;32.85;15.85;;;;;;;;;;5033279;28;20612;-73
2022/03/03 09:44:43;;;;;;;31.92;16.23;;;;;;;;;;5030569;28;20485;-73
2022/03/03 09:47:12;;;;;;;31.83;15.85;;;;;;;;;;5033334;28;20083;-75
2022/03/03 09:49:40;;;;;;;32.80;16.52;;;;;;;;;;5031563;28;20057;-73
2022/03/03 09:52:14;;;;;;;35.47;16.65;;;;;;;;;;5034332;28;20430;-74
2022/03/03 09:54:43;;;;;;;34.33;17.13;;;;;;;;;;5029655;28;20184;-74
2022/03/03 09:57:11;;;;;;;32.13;16.52;;;;;;;;;;5033126;28;20094;-74
2022/03/03 09:59:39;;;;;;;38.45;16.63;;;;;;;;;;5031669;28;20068;-74
2022/03/03 10:02:07;;;;;;;28.80;14.60;;;;;;;;;;5030853;28;20055;-75
2022/03/03 10:04:35;;;;;;;37.47;16.88;;;;;;;;;;5032296;28;20126;-74
2022/03/03 10:07:04;;;;;;;28.40;15.15;;;;;;;;;;5031638;28;20049;-74
2022/03/03 10:10:11;;;;;;;31.40;16.58;;;;;;;;;;5033473;28;20589;-75
2022/03/03 10:12:45;;;;;;;33.13;17.80;;;;;;;;;;5032119;28;20370;-74
2022/03/03 10:15:14;;;;;;;35.60;16.52;;;;;;;;;;5034545;28;20049;-73
2022/03/03 10:17:42;;;;;;;25.25;12.77;;;;;;;;;;5029649;28;20171;-73
2022/03/03 10:20:12;;;;;;;33.03;15.88;;;;;;;;;;5032381;28;20485;-74
2022/03/03 10:22:43;;;;;;;31.85;14.57;;;;;;;;;;5030054;28;20049;-73
2022/03/03 10:25:14;;;;;;;27.48;14.45;;;;;;;;;;5034650;28;20049;-73
2022/03/03 10:27:41;;;;;;;29.27;14.52;;;;;;;;;;5031295;28;20048;-73
2022/03/03 10:30:10;;;;;;;35.08;15.05;;;;;;;;;;5031240;28;20056;-73
2022/03/03 10:32:39;;;;;;;29.77;15.75;;;;;;;;;;5034292;28;20052;-73
2022/03/03 10:35:14;;;;;;;33.47;14.73;;;;;;;;;;5035313;28;20052;-74
2022/03/03 10:37:43;;;;;;;31.52;14.80;;;;;;;;;;5032338;28;20080;-74
2022/03/03 10:40:12;;;;;;;32.70;15.77;;;;;;;;;;5030171;28;20057;-75
2022/03/03 10:42:44;;;;;;;31.45;14.60;;;;;;;;;;5035187;28;22351;-73
2022/03/03 10:45:13;;;;;;;31.85;16.83;;;;;;;;;;5030509;28;20059;-75
2022/03/03 10:47:44;;;;;;;26.50;13.98;;;;;;;;;;5030979;28;20085;-74
2022/03/03 10:50:12;;;;;;;28.95;15.75;;;;;;;;;;5031184;28;20553;-74
2022/03/03 10:52:40;;;;;;;24.85;14.50;;;;;;;;;;5029851;28;20336;-73
2022/03/03 10:55:12;;;;;;;30.60;16.23;;;;;;;;;;5029509;28;20134;-73
2022/03/03 10:57:41;;;;;;;28.17;14.05;;;;;;;;;;5026810;28;20489;-75
2022/03/03 11:00:12;;;;;;;28.85;15.73;;;;;;;;;;5025998;28;20053;-74
2022/03/03 11:02:40;;;;;;;31.17;15.02;;;;;;;;;;5029857;28;20064;-73
2022/03/03 11:05:10;;;;;;;27.05;14.82;;;;;;;;;;5028216;28;20085;-74
2022/03/03 11:07:39;;;;;;;27.10;12.82;;;;;;;;;;5029434;28;20552;-74
2022/03/03 11:10:12;;;;;;;26.00;11.00;;;;;;;;;;5030185;28;20063;-73
2022/03/03 11:12:40;;;;;;;26.77;13.27;;;;;;;;;;5030943;28;20560;-73
2022/03/03 11:15:08;;;;;;;22.35;10.93;;;;;;;;;;5032689;28;20153;-74
2022/03/03 11:17:37;;;;;;;30.95;14.32;;;;;;;;;;5032051;28;20746;-73
2022/03/03 11:22:59;;;;;;;;;;;;;;;;;;5028336;28;20102;-73
2022/03/03 11:25:29;;;;;;;29.63;15.13;;;;;;;;;;5027017;28;19917;-74
2022/03/03 11:28:02;;;;;;;31.88;13.98;;;;;;;;;;5029009;28;20049;-73
2022/03/03 11:30:30;;;;;;;27.33;14.77;;;;;;;;;;5030943;28;20271;-75
2022/03/03 11:33:28;;;;;;;26.73;13.32;;;;;;;;;;5031607;28;20063;-74
2022/03/03 11:36:00;;;;;;;29.80;15.60;;;;;;;;;;4973686;28;20067;-74
2022/03/03 11:38:28;;;;;;;29.70;14.65;;;;;;;;;;5017307;28;20105;-75
2022/03/03 11:40:57;;;;;;;24.65;14.13;;;;;;;;;;5024241;28;20040;-74
2022/03/03 11:43:25;;;;;;;26.13;14.40;;;;;;;;;;5024541;28;20103;-73
2022/03/03 11:45:54;;;;;;;26.20;13.95;;;;;;;;;;5030329;28;20036;-72
2022/03/03 11:48:23;;;;;;;27.27;14.85;;;;;;;;;;5028210;28;20049;-72
2022/03/03 11:50:51;;;;;;;26.98;14.73;;;;;;;;;;5031598;28;20104;-74
2022/03/03 11:53:24;;;;;;;25.52;13.85;;;;;;;;;;5029019;28;20045;-74
2022/03/03 11:55:57;;;;;;;23.60;12.95;;;;;;;;;;5028128;28;20320;-74
2022/03/03 11:58:27;;;;;;;26.53;11.97;;;;;;;;;;5033370;28;20484;-74
2022/03/03 12:01:06;;;;;;;23.75;14.65;;;;;;;;;;5024743;28;20373;-73
2022/03/03 12:03:59;;;;;;;23.55;13.02;;;;;;;;;;5031628;28;20059;-73
2022/03/03 12:06:43;;;;;;;22.80;11.80;;;;;;;;;;5032837;28;20126;-73
2022/03/03 12:09:24;;;;;;;32.38;14.40;;;;;;;;;;5028871;28;20171;-73
2022/03/03 12:12:06;;;;;;;21.20;11.63;;;;;;;;;;5032471;28;20055;-73
2022/03/03 12:14:35;;;;;;;28.73;12.98;;;;;;;;;;5028895;28;20061;-73
2022/03/03 12:17:21;;;;;;;24.42;12.40;;;;;;;;;;5030951;28;20290;-73
2022/03/03 12:19:49;;;;;;;24.95;12.35;;;;;;;;;;5037909;28;20389;-74
2022/03/03 12:22:24;;;;;;;23.02;12.15;;;;;;;;;;5034328;28;20480;-73
2022/03/03 12:24:53;;;;;;;22.35;12.02;;;;;;;;;;5034908;28;20040;-75
2022/03/03 12:27:20;;;;;;;23.63;11.68;;;;;;;;;;5031261;28;20059;-73
2022/03/03 12:29:56;;;;;;;20.98;12.35;;;;;;;;;;5033633;28;20044;-72
2022/03/03 12:32:44;;;;;;;21.83;12.10;;;;;;;;;;5034619;28;20114;-72
2022/03/03 12:35:22;;;;;;;22.40;12.45;;;;;;;;;;5029826;28;20073;-72
2022/03/03 12:37:50;;;;;;;20.75;12.20;;;;;;;;;;5035436;28;20180;-73
2022/03/03 12:40:20;;;;;;;24.85;11.73;;;;;;;;;;5033101;28;20148;-74
2022/03/03 12:42:49;;;;;;;23.00;12.57;;;;;;;;;;5031321;28;20052;-73
2022/03/03 12:45:17;;;;;;;18.38;10.15;;;;;;;;;;5031109;28;20131;-74
2022/03/03 12:47:46;;;;;;;21.48;10.73;;;;;;;;;;5030551;28;20534;-74
2022/03/03 12:50:15;;;;;;;22.27;12.40;;;;;;;;;;5033147;28;20052;-75
2022/03/03 12:53:08;;;;;;;22.50;13.55;;;;;;;;;;5031433;28;20486;-75
2022/03/03 12:55:38;;;;;;;24.20;12.38;;;;;;;;;;5030454;28;20163;-75
2022/03/03 12:58:06;;;;;;;21.38;11.43;;;;;;;;;;5033350;28;20128;-75
2022/03/03 13:00:59;;;;;;;22.02;11.30;;;;;;;;;;5031646;28;20088;-74
2022/03/03 13:03:31;;;;;;;20.52;11.18;;;;;;;;;;5032160;28;20489;-75
2022/03/03 13:06:00;;;;;;;22.23;13.35;;;;;;;;;;5037117;28;20148;-75
2022/03/03 13:08:29;;;;;;;25.08;11.60;;;;;;;;;;5030249;28;20045;-74
2022/03/03 13:10:58;;;;;;;20.77;11.63;;;;;;;;;;5030724;28;20045;-74
2022/03/03 13:13:28;;;;;;;20.13;11.18;;;;;;;;;;5032204;28;20185;-74
2022/03/03 13:16:20;;;;;;;23.63;12.60;;;;;;;;;;5029941;28;20464;-74
2022/03/03 13:18:49;;;;;;;24.13;12.02;;;;;;;;;;5028047;28;20057;-74
2022/03/03 13:21:17;;;;;;;19.75;11.60;;;;;;;;;;5031859;28;20132;-74
2022/03/03 13:23:46;;;;;;;20.08;11.40;;;;;;;;;;5029755;28;20135;-74
2022/03/03 13:26:18;;;;;;;21.40;11.88;;;;;;;;;;5033870;28;20041;-74
2022/03/03 13:28:46;;;;;;;20.35;11.20;;;;;;;;;;5030171;28;20056;-73
2022/03/03 13:31:16;;;;;;;19.27;10.93;;;;;;;;;;5030147;28;20053;-74
2022/03/03 13:33:44;;;;;;;19.90;11.20;;;;;;;;;;5027486;28;20057;-74
2022/03/03 13:36:12;;;;;;;21.05;11.43;;;;;;;;;;5031968;28;20120;-73
2022/03/03 13:38:40;;;;;;;22.05;12.60;;;;;;;;;;5028710;28;20930;-74
2022/03/03 13:41:25;;;;;;;19.10;11.93;;;;;;;;;;5029803;28;20040;-73
2022/03/03 13:44:08;;;;;;;20.77;11.13;;;;;;;;;;5028964;28;20049;-73
2022/03/03 13:46:36;;;;;;;18.95;11.20;;;;;;;;;;5029769;28;20048;-74
2022/03/03 13:49:04;;;;;;;21.50;11.55;;;;;;;;;;5029435;28;20131;-73
2022/03/03 13:51:36;;;;;;;19.85;10.80;;;;;;;;;;5030646;28;20056;-75
2022/03/03 13:54:05;;;;;;;21.08;10.93;;;;;;;;;;5030943;28;20935;-74
2022/03/03 13:56:58;;;;;;;20.02;11.48;;;;;;;;;;5034681;28;20048;-75
2022/03/03 13:59:26;;;;;;;19.20;11.48;;;;;;;;;;5037199;28;20503;-74
2022/03/03 14:02:07;;;;;;;17.00;10.02;;;;;;;;;;5032343;28;20051;-74
2022/03/03 14:04:35;;;;;;;21.20;11.68;;;;;;;;;;5032345;28;20049;-74
2022/03/03 14:07:03;;;;;;;17.67;10.65;;;;;;;;;;5029809;28;20053;-74
2022/03/03 14:09:31;;;;;;;21.35;11.82;;;;;;;;;;5027039;28;20049;-74
2022/03/03 14:12:12;;;;;;;20.27;10.93;;;;;;;;;;5026461;28;20114;-74
2022/03/03 14:14:45;;;;;;;19.17;11.32;;;;;;;;;;5026785;28;20048;-74
2022/03/03 14:17:14;;;;;;;18.17;10.50;;;;;;;;;;5028759;28;20072;-75
2022/03/03 14:19:43;;;;;;;17.77;10.40;;;;;;;;;;5029371;28;20142;-75
2022/03/03 14:22:11;;;;;;;19.42;11.40;;;;;;;;;;5029472;28;20056;-75
2022/03/03 14:24:39;;;;;;;19.75;10.70;;;;;;;;;;5031606;28;20053;-75
2022/03/03 14:27:32;;;;;;;18.40;8.65;;;;;;;;;;5029631;28;20202;-75
2022/03/03 14:30:00;;;;;;;19.17;11.68;;;;;;;;;;5028893;28;20397;-74
2022/03/03 14:32:33;;;;;;;19.27;10.35;;;;;;;;;;5025026;28;20045;-74
2022/03/03 14:35:01;;;;;;;17.33;11.07;;;;;;;;;;5031059;28;20053;-75
2022/03/03 14:37:29;;;;;;;20.38;10.80;;;;;;;;;;5028796;28;20901;-72
2022/03/03 14:39:57;;;;;;;17.85;10.35;;;;;;;;;;5029578;28;20053;-74